createdAt,value
2023-03-21T00:00:54.416Z,4.00
2023-03-21T00:03:22.604Z,4.40
2023-03-21T00:05:53.405Z,4.30
2023-03-21T00:08:24.418Z,3.70
2023-03-21T00:10:57.812Z,3.97
2023-03-21T00:13:26.543Z,4.30
2023-03-21T00:16:09.499Z,4.10
2023-03-21T00:18:46.535Z,3.67
2023-03-21T00:21:40.647Z,3.50
2023-03-21T00:24:07.987Z,4.43
2023-03-21T00:26:38.104Z,3.53
2023-03-21T00:29:06.222Z,3.80
2023-03-21T00:31:34.366Z,4.37
2023-03-21T00:34:02.520Z,4.90
2023-03-21T00:36:32.461Z,4.03
2023-03-21T00:39:01.092Z,4.50
2023-03-21T00:41:45.866Z,3.97
2023-03-21T00:44:15.673Z,5.47
2023-03-21T00:46:51.552Z,5.93
2023-03-21T00:49:22.594Z,5.97
2023-03-21T00:51:51.619Z,7.97
2023-03-21T00:54:20.378Z,6.00
2023-03-21T00:56:49.785Z,3.73
2023-03-21T00:59:17.733Z,3.77
2023-03-21T01:01:46.695Z,3.70
2023-03-21T01:04:16.475Z,4.40
2023-03-21T01:06:45.312Z,3.90
2023-03-21T01:09:16.498Z,4.27
2023-03-21T01:11:45.241Z,3.97
2023-03-21T01:14:22.817Z,3.97
2023-03-21T01:16:52.094Z,3.90
2023-03-21T01:19:27.600Z,4.40
2023-03-21T01:22:00.717Z,3.97
2023-03-21T01:24:28.822Z,4.20
2023-03-21T01:26:56.872Z,4.53
2023-03-21T01:29:26.367Z,3.43
2023-03-21T01:31:55.729Z,3.87
2023-03-21T01:34:23.810Z,4.70
2023-03-21T01:36:51.984Z,4.03
2023-03-21T01:39:22.099Z,4.30
2023-03-21T01:41:51.514Z,4.13
2023-03-21T01:44:22.661Z,3.80
2023-03-21T01:47:12.296Z,4.30
2023-03-21T01:49:50.601Z,4.60
2023-03-21T01:52:35.912Z,3.73
2023-03-21T01:55:11.627Z,4.50
2023-03-21T01:58:04.002Z,4.13
2023-03-21T02:00:38.834Z,4.27
2023-03-21T02:03:34.936Z,4.23
2023-03-21T02:06:31.906Z,4.63
2023-03-21T02:09:11.709Z,6.07
2023-03-21T02:11:40.814Z,18.60
2023-03-21T02:14:26.754Z,16.27
2023-03-21T02:17:08.140Z,10.50
2023-03-21T02:20:22.111Z,4.40
2023-03-21T02:23:19.776Z,5.13
2023-03-21T02:26:14.893Z,4.20
2023-03-21T02:28:47.621Z,4.17
2023-03-21T02:31:32.269Z,4.40
2023-03-21T02:34:42.390Z,4.73
2023-03-21T02:37:37.169Z,4.10
2023-03-21T02:40:13.528Z,4.30
2023-03-21T02:42:59.995Z,4.47
2023-03-21T02:45:40.732Z,4.17
2023-03-21T02:48:25.473Z,3.83
2023-03-21T02:51:00.001Z,4.13
2023-03-21T02:53:35.137Z,4.10
2023-03-21T02:56:10.950Z,4.80
2023-03-21T02:58:45.965Z,4.23
2023-03-21T03:01:14.017Z,4.70
2023-03-21T03:03:48.748Z,4.83
2023-03-21T03:06:20.694Z,4.20
2023-03-21T03:09:06.620Z,4.53
2023-03-21T03:11:37.543Z,4.17
2023-03-21T03:14:44.318Z,4.47
2023-03-21T03:17:28.400Z,4.50
2023-03-21T03:20:16.526Z,4.47
2023-03-21T03:22:56.068Z,4.93
2023-03-21T03:25:42.095Z,3.63
2023-03-21T03:28:15.565Z,4.57
2023-03-21T03:30:57.083Z,5.13
2023-03-21T03:33:38.029Z,3.90
2023-03-21T03:36:09.471Z,4.53
2023-03-21T03:38:40.121Z,4.37
2023-03-21T03:41:14.717Z,3.93
2023-03-21T03:43:54.880Z,4.93
2023-03-21T03:46:31.216Z,4.07
2023-03-21T03:49:03.262Z,3.83
2023-03-21T03:51:37.012Z,4.23
2023-03-21T03:54:14.682Z,3.87
2023-03-21T03:56:45.997Z,4.00
2023-03-21T03:59:19.326Z,4.70
2023-03-21T04:02:14.555Z,4.13
2023-03-21T04:04:43.044Z,4.67
2023-03-21T04:07:11.327Z,5.20
2023-03-21T04:09:44.527Z,4.30
2023-03-21T04:12:18.014Z,5.30
2023-03-21T04:15:10.193Z,4.10
2023-03-21T04:17:41.404Z,4.50
2023-03-21T04:20:16.724Z,4.40
2023-03-21T04:22:52.278Z,4.23
2023-03-21T04:25:32.588Z,3.93
2023-03-21T04:28:04.079Z,4.50
2023-03-21T04:31:01.472Z,4.10
2023-03-21T04:33:38.302Z,4.50
2023-03-21T04:36:09.330Z,4.40
2023-03-21T04:38:38.081Z,4.90
2023-03-21T04:41:06.652Z,4.30
2023-03-21T04:43:36.171Z,4.70
2023-03-21T04:46:04.217Z,4.70
2023-03-21T04:48:32.379Z,4.67
2023-03-21T04:51:01.982Z,4.27
2023-03-21T04:53:30.511Z,4.30
2023-03-21T04:55:58.584Z,4.40
2023-03-21T04:58:26.658Z,4.80
2023-03-21T05:00:57.317Z,4.77
2023-03-21T05:03:25.507Z,5.37
2023-03-21T05:05:53.539Z,5.00
2023-03-21T05:08:21.623Z,4.87
2023-03-21T05:10:49.591Z,4.77
2023-03-21T05:13:17.733Z,4.53
2023-03-21T05:15:45.790Z,4.40
2023-03-21T05:18:15.505Z,5.07
2023-03-21T05:21:00.022Z,6.40
2023-03-21T05:23:31.571Z,4.90
2023-03-21T05:26:00.069Z,4.50
2023-03-21T05:28:52.533Z,4.50
2023-03-21T05:31:21.178Z,4.90
2023-03-21T05:33:55.668Z,4.90
2023-03-21T05:36:23.874Z,4.80
2023-03-21T05:38:51.966Z,4.43
2023-03-21T05:41:21.347Z,4.63
2023-03-21T05:43:49.662Z,5.27
2023-03-21T05:46:18.239Z,5.07
2023-03-21T05:48:46.812Z,5.13
2023-03-21T05:51:19.429Z,4.87
2023-03-21T05:53:48.560Z,5.90
2023-03-21T05:56:17.657Z,5.07
2023-03-21T05:58:52.858Z,5.67
2023-03-21T06:01:22.784Z,5.57
2023-03-21T06:03:58.964Z,6.20
2023-03-21T06:06:30.909Z,6.27
2023-03-21T06:09:02.803Z,4.83
2023-03-21T06:11:36.186Z,6.00
2023-03-21T06:14:33.656Z,5.60
2023-03-21T06:17:22.045Z,5.70
2023-03-21T06:19:55.675Z,5.50
2023-03-21T06:22:33.262Z,4.90
2023-03-21T06:25:02.948Z,6.17
2023-03-21T06:27:31.503Z,4.83
2023-03-21T06:30:00.313Z,5.33
2023-03-21T06:32:32.721Z,5.20
2023-03-21T06:35:09.580Z,5.80
2023-03-21T06:37:40.088Z,6.13
2023-03-21T06:40:09.752Z,5.13
2023-03-21T06:42:37.823Z,5.40
2023-03-21T06:45:12.122Z,6.03
2023-03-21T06:47:40.611Z,5.47
2023-03-21T06:50:16.048Z,5.80
2023-03-21T06:52:47.040Z,5.40
2023-03-21T06:55:15.907Z,6.60
2023-03-21T06:57:44.425Z,5.80
2023-03-21T07:00:13.788Z,5.93
2023-03-21T07:02:48.299Z,6.73
2023-03-21T07:05:19.854Z,6.20
2023-03-21T07:07:49.484Z,5.60
2023-03-21T07:10:17.619Z,5.60
2023-03-21T07:12:51.108Z,5.63
2023-03-21T07:15:24.904Z,6.00
2023-03-21T07:17:53.208Z,5.97
2023-03-21T07:20:21.523Z,6.50
2023-03-21T07:22:51.518Z,5.67
2023-03-21T07:25:20.566Z,6.50
2023-03-21T07:27:49.573Z,6.63
2023-03-21T07:30:19.329Z,6.33
2023-03-21T07:32:47.594Z,6.13
2023-03-21T07:35:18.612Z,7.23
2023-03-21T07:37:46.664Z,6.57
2023-03-21T07:40:19.468Z,8.50
2023-03-21T07:42:50.142Z,8.60
2023-03-21T07:45:29.345Z,7.93
2023-03-21T07:47:57.356Z,8.17
2023-03-21T07:50:25.447Z,9.07
2023-03-21T07:52:53.916Z,7.30
2023-03-21T07:55:23.587Z,7.10
2023-03-21T07:57:52.524Z,7.43
2023-03-21T08:00:23.715Z,7.33
2023-03-21T08:02:57.837Z,6.73
2023-03-21T08:05:31.206Z,7.00
2023-03-21T08:07:59.252Z,7.23
2023-03-21T08:10:29.300Z,7.17
2023-03-21T08:12:57.518Z,8.33
2023-03-21T08:15:25.701Z,8.30
2023-03-21T08:17:53.728Z,7.13
2023-03-21T08:20:23.594Z,7.73
2023-03-21T08:22:52.206Z,8.50
2023-03-21T08:25:22.010Z,8.30
2023-03-21T08:27:52.787Z,8.03
2023-03-21T08:30:22.725Z,8.83
2023-03-21T08:32:51.508Z,8.53
2023-03-21T08:35:21.093Z,8.10
2023-03-21T08:37:49.131Z,8.80
2023-03-21T08:40:20.502Z,7.80
2023-03-21T08:42:48.641Z,7.87
2023-03-21T08:45:19.083Z,7.77
2023-03-21T08:47:47.414Z,7.97
2023-03-21T08:50:18.847Z,7.60
2023-03-21T08:52:46.952Z,7.30
2023-03-21T08:55:16.017Z,9.07
2023-03-21T08:57:44.234Z,9.03
2023-03-21T09:00:18.076Z,8.40
2023-03-21T09:02:49.504Z,6.53
2023-03-21T09:05:18.470Z,7.43
2023-03-21T09:07:46.641Z,6.90
2023-03-21T09:10:21.505Z,7.97
2023-03-21T09:12:51.351Z,7.10
2023-03-21T09:15:21.593Z,7.43
2023-03-21T09:17:53.130Z,9.87
2023-03-21T09:20:26.011Z,7.20
2023-03-21T09:22:54.935Z,7.27
2023-03-21T09:25:23.789Z,7.60
2023-03-21T09:27:52.417Z,8.57
2023-03-21T09:30:24.785Z,7.00
2023-03-21T09:32:55.927Z,7.13
2023-03-21T09:35:27.240Z,8.00
2023-03-21T09:37:58.938Z,7.37
2023-03-21T09:40:41.533Z,7.97
2023-03-21T09:43:23.781Z,7.23
2023-03-21T09:45:58.423Z,7.40
2023-03-21T09:48:39.640Z,7.50
2023-03-21T09:51:17.986Z,6.83
2023-03-21T09:53:49.039Z,7.70
2023-03-21T09:56:17.568Z,7.10
2023-03-21T09:58:52.983Z,8.50
2023-03-21T10:01:28.209Z,6.87
2023-03-21T10:04:01.006Z,8.10
2023-03-21T10:06:30.556Z,7.63
2023-03-21T10:09:01.816Z,7.67
2023-03-21T10:11:33.363Z,7.83
2023-03-21T10:14:05.807Z,7.47
2023-03-21T10:16:35.936Z,7.50
2023-03-21T10:19:12.337Z,7.50
2023-03-21T10:21:59.768Z,8.50
2023-03-21T10:24:30.852Z,7.83
2023-03-21T10:26:59.502Z,7.93
2023-03-21T10:29:29.767Z,7.37
2023-03-21T10:31:57.896Z,7.30
2023-03-21T10:34:32.989Z,7.33
2023-03-21T10:37:03.519Z,8.20
2023-03-21T10:39:36.537Z,8.13
2023-03-21T10:42:04.759Z,7.60
2023-03-21T10:44:35.046Z,7.30
2023-03-21T10:47:07.169Z,7.50
2023-03-21T10:50:05.933Z,6.63
2023-03-21T10:52:29.540Z,6.73
2023-03-21T10:55:09.475Z,7.40
2023-03-21T10:57:38.369Z,6.70
2023-03-21T11:00:15.038Z,5.70
2023-03-21T11:02:43.928Z,6.23
2023-03-21T11:05:22.509Z,6.20
2023-03-21T11:08:01.362Z,6.73
2023-03-21T11:10:31.476Z,6.07
2023-03-21T11:13:02.841Z,5.77
2023-03-21T11:15:33.145Z,6.33
2023-03-21T11:18:13.738Z,6.87
2023-03-21T11:20:49.574Z,5.63
2023-03-21T11:23:20.501Z,6.53
2023-03-21T11:25:50.774Z,6.53
2023-03-21T11:28:22.252Z,6.83
2023-03-21T11:30:54.095Z,5.90
2023-03-21T11:33:23.689Z,5.67
2023-03-21T11:36:04.750Z,6.43
2023-03-21T11:38:36.548Z,6.40
2023-03-21T11:41:05.855Z,6.53
2023-03-21T11:43:37.391Z,5.90
2023-03-21T11:46:09.475Z,5.93
2023-03-21T11:48:41.665Z,6.40
2023-03-21T11:51:21.627Z,6.50
2023-03-21T11:53:58.337Z,6.50
2023-03-21T11:56:30.358Z,6.53
2023-03-21T11:59:28.975Z,6.30
2023-03-21T12:02:08.293Z,6.10
2023-03-21T12:04:42.187Z,5.73
2023-03-21T12:07:35.351Z,6.03
2023-03-21T12:10:23.654Z,6.23
2023-03-21T12:12:57.325Z,6.00
2023-03-21T12:15:32.376Z,6.97
2023-03-21T12:18:07.758Z,6.80
2023-03-21T12:20:45.267Z,6.20
2023-03-21T12:23:28.528Z,6.17
2023-03-21T12:26:07.056Z,6.50
2023-03-21T12:28:46.264Z,6.30
2023-03-21T12:31:23.616Z,6.60
2023-03-21T12:34:03.166Z,5.93
2023-03-21T12:37:00.550Z,6.40
2023-03-21T12:39:33.215Z,7.60
2023-03-21T12:42:27.828Z,5.87
2023-03-21T12:45:06.029Z,6.53
2023-03-21T12:47:36.536Z,5.90
2023-03-21T12:50:10.334Z,6.30
2023-03-21T12:52:43.002Z,6.27
2023-03-21T12:55:21.413Z,5.90
2023-03-21T12:57:57.569Z,5.80
2023-03-21T13:00:29.412Z,5.30
2023-03-21T13:03:00.630Z,5.37
2023-03-21T13:05:31.960Z,5.20
2023-03-21T13:08:04.701Z,6.00
2023-03-21T13:10:36.299Z,5.57
2023-03-21T13:13:18.182Z,5.33
2023-03-21T13:15:56.276Z,5.67
2023-03-21T13:18:46.960Z,7.00
2023-03-21T13:21:19.602Z,8.37
2023-03-21T13:24:01.670Z,6.30
2023-03-21T13:26:41.580Z,5.20
2023-03-21T13:29:23.496Z,6.17
2023-03-21T13:31:53.474Z,8.70
2023-03-21T13:34:24.126Z,5.63
2023-03-21T13:36:53.250Z,4.90
2023-03-21T13:39:25.519Z,5.43
2023-03-21T13:41:55.929Z,5.47
2023-03-21T13:44:34.278Z,4.83
2023-03-21T13:47:03.929Z,5.20
2023-03-21T13:49:34.969Z,5.30
2023-03-21T13:52:22.411Z,5.83
2023-03-21T13:54:54.578Z,6.10
2023-03-21T13:57:39.037Z,5.40
2023-03-21T14:00:19.744Z,5.57
2023-03-21T14:03:01.011Z,5.67
2023-03-21T14:05:29.670Z,5.20
2023-03-21T14:08:12.734Z,5.00
2023-03-21T14:10:46.274Z,5.60
2023-03-21T14:13:20.156Z,5.80
2023-03-21T14:15:55.957Z,4.87
2023-03-21T14:18:41.106Z,5.37
2023-03-21T14:21:24.220Z,5.40
2023-03-21T14:24:00.841Z,5.70
2023-03-21T14:26:32.075Z,5.20
2023-03-21T14:29:05.513Z,5.20
2023-03-21T14:31:36.358Z,4.80
2023-03-21T14:34:05.407Z,6.10
2023-03-21T14:36:43.094Z,5.27
2023-03-21T14:39:16.691Z,5.37
2023-03-21T14:41:47.619Z,5.53
2023-03-21T14:44:28.405Z,5.50
2023-03-21T14:47:05.497Z,4.87
2023-03-21T14:49:35.644Z,4.73
2023-03-21T14:52:06.921Z,5.20
2023-03-21T14:54:36.483Z,5.40
2023-03-21T14:57:08.865Z,6.13
2023-03-21T14:59:40.060Z,7.00
2023-03-21T15:02:18.060Z,7.50
2023-03-21T15:04:50.186Z,6.37
2023-03-21T15:07:27.430Z,5.60
2023-03-21T15:09:57.526Z,5.60
2023-03-21T15:12:25.813Z,4.30
2023-03-21T15:14:55.521Z,5.10
2023-03-21T15:17:24.433Z,4.40
2023-03-21T15:19:52.496Z,4.53
2023-03-21T15:22:26.332Z,5.17
2023-03-21T15:24:59.213Z,4.60
2023-03-21T15:27:27.588Z,4.10
2023-03-21T15:29:56.978Z,3.70
2023-03-21T15:32:28.139Z,3.50
2023-03-21T15:35:04.639Z,4.63
2023-03-21T15:37:36.437Z,4.07
2023-03-21T15:40:11.320Z,4.17
2023-03-21T15:42:41.207Z,4.40
2023-03-21T15:45:19.703Z,4.70
2023-03-21T15:47:55.910Z,4.37
2023-03-21T15:50:29.419Z,4.40
2023-03-21T15:53:00.322Z,4.60
2023-03-21T15:55:36.162Z,4.27
2023-03-21T15:58:07.602Z,4.67
2023-03-21T16:00:40.929Z,5.20
2023-03-21T16:03:18.163Z,3.90
2023-03-21T16:06:10.896Z,4.30
2023-03-21T16:08:44.709Z,4.70
2023-03-21T16:11:19.164Z,4.80
2023-03-21T16:13:47.427Z,4.77
2023-03-21T16:16:19.137Z,4.80
2023-03-21T16:18:47.565Z,5.20
2023-03-21T16:21:18.474Z,4.10
2023-03-21T16:23:46.833Z,4.87
2023-03-21T16:26:17.490Z,4.47
2023-03-21T16:28:46.002Z,6.00
2023-03-21T16:31:16.333Z,4.43
2023-03-21T16:33:46.345Z,5.33
2023-03-21T16:36:17.825Z,5.23
2023-03-21T16:38:46.128Z,5.30
2023-03-21T16:41:15.439Z,5.17
2023-03-21T16:43:44.148Z,5.13
2023-03-21T16:46:16.496Z,6.10
2023-03-21T16:48:47.651Z,5.27
2023-03-21T16:51:16.547Z,4.40
2023-03-21T16:53:45.185Z,4.40
2023-03-21T16:56:16.307Z,4.40
2023-03-21T16:58:44.885Z,5.10
2023-03-21T17:01:19.123Z,6.37
2023-03-21T17:03:49.577Z,6.13
2023-03-21T17:06:20.805Z,6.20
2023-03-21T17:08:49.451Z,6.30
2023-03-21T17:11:20.067Z,5.90
2023-03-21T17:13:48.636Z,5.03
2023-03-21T17:16:19.056Z,4.87
2023-03-21T17:18:49.084Z,4.50
2023-03-21T17:21:19.505Z,4.83
2023-03-21T17:23:48.046Z,4.93
2023-03-21T17:26:20.778Z,4.30
2023-03-21T17:28:49.087Z,4.80
2023-03-21T17:31:19.258Z,5.17
2023-03-21T17:33:49.657Z,4.60
2023-03-21T17:36:20.860Z,5.37
2023-03-21T17:38:49.546Z,5.37
2023-03-21T17:41:20.905Z,4.87
2023-03-21T17:43:49.965Z,5.30
2023-03-21T17:46:19.585Z,5.90
2023-03-21T17:48:49.696Z,5.10
2023-03-21T17:51:18.313Z,4.40
2023-03-21T17:53:48.256Z,4.70
2023-03-21T17:56:18.622Z,5.77
2023-03-21T17:58:47.118Z,5.13
2023-03-21T18:01:15.402Z,5.10
2023-03-21T18:03:43.519Z,5.13
2023-03-21T18:06:17.469Z,5.17
2023-03-21T18:08:46.517Z,5.00
2023-03-21T18:11:15.526Z,5.30
2023-03-21T18:13:44.894Z,5.30
2023-03-21T18:16:15.055Z,5.40
2023-03-21T18:18:45.014Z,5.57
2023-03-21T18:21:13.351Z,6.63
2023-03-21T18:23:43.434Z,5.90
2023-03-21T18:26:16.186Z,6.30
2023-03-21T18:28:44.255Z,5.77
2023-03-21T18:31:19.744Z,4.70
2023-03-21T18:33:50.199Z,5.47
2023-03-21T18:36:24.747Z,5.90
2023-03-21T18:38:56.690Z,6.87
2023-03-21T18:41:25.052Z,9.70
2023-03-21T18:44:02.319Z,7.53
2023-03-21T18:46:35.466Z,6.43
2023-03-21T18:49:33.925Z,6.10
2023-03-21T18:51:52.466Z,6.10
2023-03-21T18:54:23.457Z,6.97
2023-03-21T18:57:34.607Z,5.70
2023-03-21T18:59:39.951Z,6.37
2023-03-21T19:02:08.446Z,6.50
2023-03-21T19:04:37.738Z,5.40
2023-03-21T19:07:07.533Z,5.30
2023-03-21T19:10:16.022Z,5.97
2023-03-21T19:12:25.974Z,5.30
2023-03-21T19:14:54.213Z,5.63
2023-03-21T19:20:11.923Z,4.40
2023-03-21T19:22:39.937Z,4.40
2023-03-21T19:25:10.496Z,4.53
2023-03-21T19:27:40.270Z,4.60
2023-03-21T19:30:15.736Z,4.30
2023-03-21T19:32:44.167Z,4.27
2023-03-21T19:35:13.172Z,4.03
2023-03-21T19:37:41.350Z,5.47
2023-03-21T19:40:11.766Z,4.50
2023-03-21T19:42:40.503Z,3.90
2023-03-21T19:45:09.988Z,4.67
2023-03-21T19:47:38.055Z,5.10
2023-03-21T19:50:43.965Z,3.50
2023-03-21T19:52:55.278Z,3.60
2023-03-21T19:55:24.939Z,4.53
2023-03-21T19:57:53.612Z,4.10
2023-03-21T20:00:22.491Z,9.27
2023-03-21T20:02:51.555Z,8.10
2023-03-21T20:05:20.498Z,5.57
2023-03-21T20:07:48.829Z,6.93
2023-03-21T20:10:16.773Z,5.20
2023-03-21T20:12:46.157Z,4.47
2023-03-21T20:15:20.855Z,15.23
2023-03-21T20:17:50.436Z,6.60
2023-03-21T20:20:19.808Z,4.90
2023-03-21T20:23:07.851Z,5.87
2023-03-21T20:25:39.728Z,4.50
2023-03-21T20:28:24.734Z,5.03
2023-03-21T20:30:58.609Z,4.17
2023-03-21T20:33:27.994Z,4.37
2023-03-21T20:36:37.396Z,7.07
2023-03-21T20:38:47.050Z,6.10
2023-03-21T20:41:15.418Z,5.80
2023-03-21T20:44:28.481Z,8.60
2023-03-21T20:46:32.943Z,6.23
2023-03-21T20:49:01.107Z,6.80
2023-03-21T20:54:17.822Z,6.87
2023-03-21T20:56:46.179Z,4.90
2023-03-21T20:59:24.587Z,4.07
2023-03-21T21:01:54.433Z,4.33
2023-03-21T21:04:23.055Z,4.00
2023-03-21T21:06:55.600Z,4.37
2023-03-21T21:09:23.659Z,5.07
2023-03-21T21:12:09.706Z,4.07
2023-03-21T21:14:39.775Z,5.80
2023-03-21T21:17:26.689Z,4.20
2023-03-21T21:19:56.434Z,3.70
2023-03-21T21:22:24.480Z,4.47
2023-03-21T21:24:52.688Z,4.40
2023-03-21T21:27:20.904Z,5.00
2023-03-21T21:29:50.273Z,4.23
2023-03-21T21:32:19.609Z,4.10
2023-03-21T21:34:48.501Z,5.20
2023-03-21T21:37:16.480Z,4.17
2023-03-21T21:39:44.465Z,4.30
2023-03-21T21:42:12.443Z,4.83
2023-03-21T21:44:44.095Z,4.37
2023-03-21T21:47:13.851Z,4.27
2023-03-21T21:49:42.377Z,4.23
2023-03-21T21:52:13.967Z,5.13
2023-03-21T21:54:45.753Z,4.50
2023-03-21T21:57:14.568Z,5.20
2023-03-21T21:59:42.532Z,4.77
2023-03-21T22:02:16.649Z,4.93
2023-03-21T22:04:44.640Z,5.50
2023-03-21T22:07:14.550Z,4.60
2023-03-21T22:09:43.125Z,4.23
2023-03-21T22:12:11.318Z,4.40
2023-03-21T22:14:39.281Z,4.43
2023-03-21T22:17:07.315Z,4.57
2023-03-21T22:19:39.057Z,5.97
2023-03-21T22:22:08.350Z,5.93
2023-03-21T22:24:37.376Z,5.37
2023-03-21T22:27:05.564Z,4.60
2023-03-21T22:29:33.595Z,5.70
2023-03-21T22:32:01.707Z,4.83
2023-03-21T22:34:29.786Z,5.27
2023-03-21T22:37:00.134Z,4.73
2023-03-21T22:39:28.649Z,4.90
2023-03-21T22:42:00.751Z,6.80
2023-03-21T22:44:34.284Z,11.77
2023-03-21T22:47:02.895Z,7.37
2023-03-21T22:49:31.749Z,5.70
2023-03-21T22:52:03.159Z,7.90
2023-03-21T22:54:31.278Z,6.23
2023-03-21T22:56:59.750Z,5.03
2023-03-21T22:59:27.931Z,4.57
2023-03-21T23:01:56.596Z,4.60
2023-03-21T23:04:24.841Z,4.23
2023-03-21T23:06:53.003Z,4.60
2023-03-21T23:09:22.454Z,4.70
2023-03-21T23:11:50.538Z,5.07
2023-03-21T23:14:20.759Z,4.30
2023-03-21T23:16:49.692Z,4.93
2023-03-21T23:19:19.874Z,4.87
2023-03-21T23:21:48.759Z,6.30
2023-03-21T23:24:17.086Z,6.40
2023-03-21T23:26:46.469Z,6.30
2023-03-21T23:29:14.842Z,5.27
2023-03-21T23:31:42.789Z,5.50
2023-03-21T23:34:10.784Z,5.33
2023-03-21T23:36:39.724Z,6.13
2023-03-21T23:39:07.845Z,6.47
2023-03-21T23:41:36.104Z,5.53
2023-03-21T23:44:05.932Z,7.00
2023-03-21T23:46:34.045Z,5.90
2023-03-21T23:49:02.081Z,6.17
2023-03-21T23:51:30.079Z,6.80
2023-03-21T23:53:58.533Z,6.33
2023-03-21T23:56:28.384Z,6.80
2023-03-21T23:58:58.453Z,6.50
